createdAt,value
2019-04-14T00:02:18.643Z,62.00
2019-04-14T00:04:50.761Z,62.20
2019-04-14T00:07:21.170Z,62.50
2019-04-14T00:09:51.967Z,62.60
2019-04-14T00:12:23.106Z,62.60
2019-04-14T00:14:57.570Z,63.30
2019-04-14T00:17:33.152Z,63.40
2019-04-14T00:20:03.845Z,63.80
2019-04-14T00:22:33.696Z,63.70
2019-04-14T00:25:04.362Z,64.20
2019-04-14T00:27:34.689Z,63.90
2019-04-14T00:30:05.682Z,64.70
2019-04-14T00:32:44.363Z,64.80
2019-04-14T00:35:40.568Z,65.00
2019-04-14T00:38:39.117Z,64.80
2019-04-14T00:41:42.442Z,65.20
2019-04-14T00:44:30.011Z,65.30
2019-04-14T00:47:09.305Z,65.10
2019-04-14T00:49:39.687Z,65.30
2019-04-14T00:52:10.053Z,65.70
2019-04-14T00:54:41.415Z,65.60
2019-04-14T00:57:11.563Z,66.00
2019-04-14T00:59:41.910Z,66.10
2019-04-14T01:02:12.400Z,65.90
2019-04-14T01:04:42.667Z,66.40
2019-04-14T01:07:13.074Z,66.80
2019-04-14T01:09:44.134Z,66.70
2019-04-14T01:12:14.913Z,66.20
2019-04-14T01:14:45.309Z,66.40
2019-04-14T01:17:15.529Z,65.80
2019-04-14T01:19:45.985Z,65.50
2019-04-14T01:22:16.661Z,65.20
2019-04-14T01:24:46.842Z,65.60
2019-04-14T01:27:16.794Z,65.80
2019-04-14T01:29:47.346Z,66.20
2019-04-14T01:32:17.668Z,66.50
2019-04-14T01:34:47.718Z,66.50
2019-04-14T01:37:17.977Z,66.30
2019-04-14T01:39:48.189Z,66.00
2019-04-14T01:42:18.145Z,66.00
2019-04-14T01:44:48.163Z,65.80
2019-04-14T01:47:18.247Z,66.20
2019-04-14T01:49:48.675Z,66.20
2019-04-14T01:52:36.363Z,66.30
2019-04-14T01:55:28.815Z,66.20
2019-04-14T01:58:14.275Z,66.40
2019-04-14T02:01:06.262Z,66.70
2019-04-14T02:03:36.703Z,65.50
2019-04-14T02:06:07.171Z,65.70
2019-04-14T02:08:37.217Z,65.20
2019-04-14T02:11:07.327Z,65.40
2019-04-14T02:13:37.553Z,65.40
2019-04-14T02:16:18.552Z,65.40
2019-04-14T02:18:38.988Z,65.40
2019-04-14T02:21:10.661Z,65.70
2019-04-14T02:23:41.138Z,65.60
2019-04-14T02:26:11.215Z,65.60
2019-04-14T02:28:41.859Z,65.90
2019-04-14T02:31:30.103Z,65.60
2019-04-14T02:34:09.509Z,66.00
2019-04-14T02:39:15.649Z,65.60
2019-04-14T02:41:58.558Z,66.00
2019-04-14T02:49:19.406Z,66.20
2019-04-14T02:51:49.838Z,66.40
2019-04-14T02:54:26.878Z,66.70
2019-04-14T02:56:52.789Z,66.70
2019-04-14T02:59:22.831Z,67.40
2019-04-14T03:02:14.078Z,67.20
2019-04-14T03:04:25.798Z,66.80
2019-04-14T03:12:07.099Z,67.10
2019-04-14T03:14:39.881Z,67.20
2019-04-14T03:17:39.149Z,67.00
2019-04-14T03:20:27.897Z,67.70
2019-04-14T03:23:13.290Z,67.40
2019-04-14T03:25:59.685Z,66.80
2019-04-14T03:28:37.916Z,66.80
2019-04-14T03:36:50.333Z,67.10
2019-04-14T03:38:53.184Z,67.40
2019-04-14T03:43:43.096Z,68.30
2019-04-14T03:48:58.448Z,68.20
2019-04-14T03:51:34.617Z,68.20
2019-04-14T03:53:51.912Z,68.40
2019-04-14T03:56:35.656Z,69.00
2019-04-14T03:59:06.397Z,69.50
2019-04-14T04:01:36.760Z,69.70
2019-04-14T04:04:07.524Z,70.40
2019-04-14T04:06:37.810Z,70.40
2019-04-14T04:09:08.442Z,70.80
2019-04-14T04:11:39.022Z,70.30
2019-04-14T04:14:09.689Z,70.10
2019-04-14T04:16:59.633Z,69.70
2019-04-14T04:19:46.999Z,69.20
2019-04-14T04:22:48.074Z,69.80
2019-04-14T04:25:34.016Z,69.80
2019-04-14T04:28:21.317Z,69.50
2019-04-14T04:30:55.955Z,69.30
2019-04-14T04:33:34.791Z,69.40
2019-04-14T04:36:11.811Z,70.50
2019-04-14T04:39:06.387Z,70.40
2019-04-14T04:41:36.463Z,70.40
2019-04-14T04:44:07.221Z,70.30
2019-04-14T04:46:37.352Z,69.90
2019-04-14T04:49:14.231Z,69.50
2019-04-14T04:51:38.538Z,69.50
2019-04-14T04:54:08.238Z,69.70
2019-04-14T04:56:38.341Z,69.50
2019-04-14T04:59:08.037Z,69.10
2019-04-14T05:01:38.646Z,69.10
2019-04-14T05:04:09.068Z,69.00
2019-04-14T05:07:07.833Z,69.20
2019-04-14T05:09:55.612Z,69.80
2019-04-14T05:12:45.553Z,69.70
2019-04-14T05:15:34.338Z,69.90
2019-04-14T05:18:04.956Z,69.70
2019-04-14T05:20:35.621Z,69.10
2019-04-14T05:23:05.911Z,69.40
2019-04-14T05:25:36.567Z,69.80
2019-04-14T05:28:06.960Z,69.40
2019-04-14T05:30:37.148Z,68.90
2019-04-14T05:33:07.525Z,68.80
2019-04-14T05:35:38.013Z,68.50
2019-04-14T05:38:08.439Z,69.00
2019-04-14T05:40:38.578Z,69.00
2019-04-14T05:43:08.944Z,68.70
2019-04-14T05:45:39.519Z,68.20
2019-04-14T05:48:09.753Z,68.40
2019-04-14T05:50:40.080Z,68.60
2019-04-14T05:53:11.031Z,68.50
2019-04-14T05:55:41.651Z,67.80
2019-04-14T05:58:12.200Z,67.50
2019-04-14T06:00:44.681Z,67.70
2019-04-14T06:03:14.622Z,67.70
2019-04-14T06:05:45.017Z,67.90
2019-04-14T06:08:15.102Z,67.60
2019-04-14T06:10:46.201Z,67.70
2019-04-14T06:13:16.086Z,67.60
2019-04-14T06:15:45.760Z,68.10
2019-04-14T06:18:15.722Z,68.90
2019-04-14T06:20:45.536Z,69.00
2019-04-14T06:23:15.371Z,69.80
2019-04-14T06:25:45.619Z,69.40
2019-04-14T06:28:15.739Z,69.30
2019-04-14T06:31:03.168Z,68.60
2019-04-14T06:33:57.842Z,68.20
2019-04-14T06:36:46.532Z,67.80
2019-04-14T06:39:25.159Z,68.60
2019-04-14T06:41:54.890Z,68.60
2019-04-14T06:44:24.829Z,69.10
2019-04-14T06:46:54.591Z,69.40
2019-04-14T06:49:24.435Z,69.50
2019-04-14T06:51:54.259Z,69.40
2019-04-14T06:54:24.436Z,69.00
2019-04-14T06:56:54.219Z,68.50
2019-04-14T06:59:23.991Z,68.70
2019-04-14T07:01:53.786Z,68.80
2019-04-14T07:04:23.608Z,69.00
2019-04-14T07:06:53.903Z,68.80
2019-04-14T07:09:23.981Z,68.40
2019-04-14T07:11:53.854Z,66.90
2019-04-14T07:14:23.542Z,64.60
2019-04-14T07:16:53.387Z,62.80
2019-04-14T07:19:23.176Z,61.70
2019-04-14T07:21:53.010Z,61.30
2019-04-14T07:24:22.954Z,62.40
2019-04-14T07:26:52.706Z,62.10
2019-04-14T07:29:23.738Z,60.90
2019-04-14T07:32:10.924Z,60.30
2019-04-14T07:34:54.062Z,60.20
2019-04-14T07:37:42.341Z,60.30
2019-04-14T07:40:26.797Z,60.30
2019-04-14T07:43:15.575Z,58.90
2019-04-14T07:46:04.407Z,58.20
2019-04-14T07:48:42.979Z,57.90
2019-04-14T07:51:46.735Z,58.70
2019-04-14T07:54:41.103Z,58.70
2019-04-14T07:57:34.752Z,58.70
2019-04-14T08:00:09.943Z,58.00
2019-04-14T08:02:53.829Z,56.20
2019-04-14T08:05:28.854Z,55.20
2019-04-14T08:07:58.670Z,53.30
2019-04-14T08:10:28.392Z,51.60
2019-04-14T08:12:59.165Z,51.30
2019-04-14T08:15:29.086Z,50.70
2019-04-14T08:17:59.572Z,52.00
2019-04-14T08:20:29.358Z,52.10
2019-04-14T08:22:59.849Z,51.50
2019-04-14T08:25:29.904Z,53.00
2019-04-14T08:27:59.888Z,53.30
2019-04-14T08:30:30.246Z,53.60
2019-04-14T08:33:00.496Z,53.90
2019-04-14T08:35:30.400Z,53.20
2019-04-14T08:38:00.880Z,53.10
2019-04-14T08:40:30.598Z,52.70
2019-04-14T08:43:22.407Z,53.40
2019-04-14T08:45:59.874Z,52.60
2019-04-14T08:48:51.231Z,50.20
2019-04-14T08:51:31.969Z,50.20
2019-04-14T08:54:20.755Z,50.70
2019-04-14T08:57:00.222Z,50.20
2019-04-14T08:59:41.603Z,48.20
2019-04-14T09:02:33.485Z,48.90
2019-04-14T09:05:15.917Z,47.50
2019-04-14T09:08:01.854Z,46.40
2019-04-14T09:10:35.608Z,47.00
2019-04-14T09:13:05.727Z,46.90
2019-04-14T09:15:36.622Z,48.40
2019-04-14T09:18:06.584Z,49.70
2019-04-14T09:20:36.565Z,49.20
2019-04-14T09:23:06.654Z,49.40
2019-04-14T09:25:36.508Z,48.70
2019-04-14T09:28:06.476Z,47.30
2019-04-14T09:30:36.466Z,46.20
2019-04-14T09:33:06.519Z,46.60
2019-04-14T09:35:36.315Z,44.90
2019-04-14T09:38:06.124Z,44.60
2019-04-14T09:40:35.804Z,45.30
2019-04-14T09:43:05.758Z,46.00
2019-04-14T09:45:35.501Z,45.10
2019-04-14T09:48:06.245Z,43.60
2019-04-14T09:50:36.013Z,44.10
2019-04-14T09:53:06.028Z,43.20
2019-04-14T09:55:35.774Z,43.80
2019-04-14T09:58:06.198Z,45.00
2019-04-14T10:00:37.540Z,45.30
2019-04-14T10:03:07.632Z,45.20
2019-04-14T10:05:37.321Z,44.70
2019-04-14T10:08:07.469Z,43.00
2019-04-14T10:10:37.250Z,44.60
2019-04-14T10:13:07.887Z,45.30
2019-04-14T10:23:58.092Z,42.90
2019-04-14T10:26:28.086Z,43.30
2019-04-14T10:28:57.768Z,43.30
2019-04-14T10:31:27.304Z,41.80
2019-04-14T10:33:56.950Z,38.90
2019-04-14T10:36:26.955Z,38.30
2019-04-14T10:38:56.768Z,39.30
2019-04-14T10:41:26.746Z,39.60
2019-04-14T10:43:56.832Z,39.50
2019-04-14T10:46:26.497Z,40.10
2019-04-14T10:48:56.388Z,39.00
2019-04-14T10:51:30.148Z,40.40
2019-04-14T10:53:57.565Z,39.50
2019-04-14T10:56:28.161Z,38.70
2019-04-14T10:58:57.831Z,39.80
2019-04-14T11:01:27.455Z,40.80
2019-04-14T11:03:57.155Z,40.40
2019-04-14T11:06:36.035Z,40.70
2019-04-14T11:09:07.299Z,39.70
2019-04-14T11:11:36.947Z,41.70
2019-04-14T11:14:06.933Z,42.20
2019-04-14T11:16:36.524Z,43.20
2019-04-14T11:19:06.173Z,43.70
2019-04-14T11:21:42.323Z,44.90
2019-04-14T11:24:07.235Z,43.60
2019-04-14T11:26:36.950Z,44.90
2019-04-14T11:29:06.551Z,46.20
2019-04-14T11:31:55.238Z,46.90
2019-04-14T11:34:29.378Z,47.70
2019-04-14T11:37:17.973Z,46.20
2019-04-14T11:39:47.593Z,46.20
2019-04-14T11:42:17.336Z,46.90
2019-04-14T11:44:47.041Z,47.00
2019-04-14T11:47:16.762Z,46.30
2019-04-14T11:49:46.427Z,46.70
2019-04-14T11:52:16.118Z,46.70
2019-04-14T11:54:45.734Z,47.00
2019-04-14T11:57:15.614Z,46.80
2019-04-14T11:59:53.469Z,46.50
2019-04-14T12:02:41.172Z,46.60
2019-04-14T12:05:24.467Z,46.70
2019-04-14T12:08:18.790Z,45.30
2019-04-14T12:10:48.708Z,46.40
2019-04-14T12:13:18.545Z,46.20
2019-04-14T12:15:48.115Z,46.50
2019-04-14T12:18:17.898Z,46.70
2019-04-14T12:20:47.609Z,46.80
2019-04-14T12:23:17.343Z,46.70
2019-04-14T12:25:47.124Z,46.40
2019-04-14T12:28:17.343Z,46.50
2019-04-14T12:30:47.331Z,46.60
2019-04-14T12:33:17.133Z,46.10
2019-04-14T12:35:46.891Z,45.60
2019-04-14T12:38:16.431Z,45.70
2019-04-14T12:40:47.264Z,46.40
2019-04-14T12:43:39.020Z,46.80
2019-04-14T12:46:25.958Z,47.00
2019-04-14T12:49:14.642Z,47.30
2019-04-14T12:52:03.207Z,47.90
2019-04-14T12:54:33.021Z,48.00
2019-04-14T12:57:02.770Z,47.00
2019-04-14T12:59:34.067Z,47.00
2019-04-14T13:02:14.441Z,47.20
2019-04-14T13:04:44.260Z,47.10
2019-04-14T13:07:13.938Z,46.80
2019-04-14T13:09:44.775Z,46.80
2019-04-14T13:12:15.027Z,46.80
2019-04-14T13:14:46.261Z,47.40
2019-04-14T13:17:16.107Z,47.50
2019-04-14T13:19:45.924Z,46.80
2019-04-14T13:22:15.701Z,46.40
2019-04-14T13:24:45.569Z,46.50
2019-04-14T13:27:15.428Z,46.90
2019-04-14T13:29:45.415Z,47.10
2019-04-14T13:32:17.880Z,47.00
2019-04-14T13:34:48.418Z,47.80
2019-04-14T13:37:18.345Z,47.40
2019-04-14T13:39:48.489Z,46.60
2019-04-14T13:42:18.292Z,46.60
2019-04-14T13:44:49.104Z,46.30
2019-04-14T13:47:19.104Z,46.40
2019-04-14T13:49:48.850Z,47.20
2019-04-14T13:52:18.670Z,47.60
2019-04-14T13:54:48.457Z,47.30
2019-04-14T13:57:18.252Z,47.20
2019-04-14T13:59:48.098Z,47.80
2019-04-14T14:02:18.304Z,48.00
2019-04-14T14:04:48.087Z,47.90
2019-04-14T14:07:18.240Z,47.80
2019-04-14T14:09:48.176Z,47.80
2019-04-14T14:12:31.804Z,47.40
2019-04-14T14:15:18.759Z,47.90
2019-04-14T14:18:10.527Z,47.10
2019-04-14T14:20:59.582Z,46.90
2019-04-14T14:23:51.144Z,47.50
2019-04-14T14:26:22.655Z,46.60
2019-04-14T14:28:52.486Z,47.00
2019-04-14T14:31:22.812Z,47.10
2019-04-14T14:33:52.669Z,47.60
2019-04-14T14:36:22.427Z,47.90
2019-04-14T14:38:52.297Z,48.10
2019-04-14T14:41:21.843Z,48.50
2019-04-14T14:43:51.772Z,48.30
2019-04-14T14:46:49.435Z,48.00
2019-04-14T14:49:41.180Z,48.20
2019-04-14T14:52:13.112Z,47.80
2019-04-14T14:54:42.943Z,47.80
2019-04-14T14:57:12.658Z,47.60
2019-04-14T14:59:42.461Z,47.10
2019-04-14T15:02:12.165Z,47.10
2019-04-14T15:04:42.173Z,47.50
2019-04-14T15:07:11.917Z,47.40
2019-04-14T15:09:42.121Z,47.50
2019-04-14T15:12:11.982Z,47.40
2019-04-14T15:14:41.871Z,47.80
2019-04-14T15:17:11.674Z,47.40
2019-04-14T15:19:41.752Z,46.20
2019-04-14T15:22:11.715Z,46.50
2019-04-14T15:24:43.059Z,46.60
2019-04-14T15:27:13.147Z,47.20
2019-04-14T15:29:44.788Z,47.50
2019-04-14T15:32:14.618Z,47.20
2019-04-14T15:34:45.272Z,47.00
2019-04-14T15:37:15.448Z,47.30
2019-04-14T15:39:45.210Z,47.60
2019-04-14T15:42:15.031Z,48.20
2019-04-14T15:44:44.795Z,47.90
2019-04-14T15:47:14.637Z,48.30
2019-04-14T15:49:44.425Z,48.80
2019-04-14T15:52:16.532Z,48.90
2019-04-14T15:54:46.298Z,48.40
2019-04-14T15:57:44.045Z,48.60
2019-04-14T16:00:45.114Z,48.90
2019-04-14T16:03:22.278Z,48.90
2019-04-14T16:06:11.230Z,49.40
2019-04-14T16:09:02.903Z,49.50
2019-04-14T16:11:41.666Z,49.70
2019-04-14T16:14:30.402Z,49.50
2019-04-14T16:17:37.302Z,49.90
2019-04-14T16:20:10.046Z,50.30
2019-04-14T16:22:40.344Z,50.50
2019-04-14T16:25:10.261Z,50.50
2019-04-14T16:28:10.906Z,50.50
2019-04-14T16:30:58.618Z,50.30
2019-04-14T16:33:44.966Z,50.60
2019-04-14T16:36:14.674Z,51.70
2019-04-14T16:38:44.488Z,51.20
2019-04-14T16:41:14.262Z,50.90
2019-04-14T16:43:44.114Z,50.70
2019-04-14T16:46:13.891Z,50.70
2019-04-14T16:48:43.691Z,50.90
2019-04-14T16:51:18.772Z,51.30
2019-04-14T16:53:48.892Z,51.20
2019-04-14T16:56:52.775Z,52.10
2019-04-14T16:59:22.626Z,51.50
2019-04-14T17:01:52.436Z,51.30
2019-04-14T17:04:22.205Z,51.50
2019-04-14T17:06:52.043Z,51.20
2019-04-14T17:09:22.312Z,51.20
2019-04-14T17:11:52.999Z,51.70
2019-04-14T17:14:31.421Z,52.00
2019-04-14T17:17:16.121Z,53.30
2019-04-14T17:20:02.700Z,54.20
2019-04-14T17:22:49.811Z,54.00
2019-04-14T17:25:35.117Z,54.50
2019-04-14T17:28:19.430Z,54.80
2019-04-14T17:30:59.418Z,55.10
2019-04-14T17:33:40.731Z,55.00
2019-04-14T17:36:28.073Z,54.80
2019-04-14T17:39:16.652Z,54.80
2019-04-14T17:42:04.029Z,55.10
2019-04-14T17:44:47.025Z,55.00
2019-04-14T17:47:35.709Z,55.30
2019-04-14T17:50:40.564Z,55.50
2019-04-14T17:53:10.999Z,55.10
2019-04-14T17:56:05.650Z,55.20
2019-04-14T17:58:52.800Z,54.90
2019-04-14T18:01:36.036Z,54.80
2019-04-14T18:04:17.356Z,54.80
2019-04-14T18:06:58.563Z,55.10
2019-04-14T18:09:43.501Z,55.00
2019-04-14T18:12:32.213Z,55.30
2019-04-14T18:15:29.693Z,55.40
2019-04-14T18:18:34.073Z,55.50
2019-04-14T18:21:06.583Z,55.80
2019-04-14T18:23:36.455Z,55.70
2019-04-14T18:26:07.277Z,55.70
2019-04-14T18:28:55.995Z,56.00
2019-04-14T18:31:36.334Z,55.90
2019-04-14T18:34:20.728Z,55.80
2019-04-14T18:37:24.202Z,55.90
2019-04-14T18:40:11.252Z,56.00
2019-04-14T18:42:58.140Z,56.30
2019-04-14T18:45:42.745Z,56.20
2019-04-14T18:48:29.064Z,56.10
2019-04-14T18:51:23.447Z,56.20
2019-04-14T18:54:18.089Z,56.40
2019-04-14T18:57:09.803Z,56.20
2019-04-14T19:00:07.735Z,55.70
2019-04-14T19:02:37.446Z,56.10
2019-04-14T19:05:07.766Z,55.80
2019-04-14T19:07:37.510Z,55.80
2019-04-14T19:10:07.831Z,56.60
2019-04-14T19:12:45.124Z,56.10
2019-04-14T19:15:40.085Z,56.40
2019-04-14T19:18:14.736Z,56.20
2019-04-14T19:20:47.743Z,57.00
2019-04-14T19:23:17.381Z,56.30
2019-04-14T19:25:48.977Z,56.60
2019-04-14T19:28:18.805Z,56.60
2019-04-14T19:30:48.497Z,56.80
2019-04-14T19:33:19.672Z,57.10
2019-04-14T19:35:49.322Z,56.70
2019-04-14T19:38:20.117Z,56.80
2019-04-14T19:40:50.308Z,56.50
2019-04-14T19:43:23.826Z,56.50
2019-04-14T19:45:51.298Z,56.70
2019-04-14T19:48:21.095Z,57.10
2019-04-14T19:50:50.872Z,57.50
2019-04-14T19:53:20.634Z,58.10
2019-04-14T19:55:50.229Z,58.30
2019-04-14T19:58:20.002Z,58.50
2019-04-14T20:00:49.841Z,58.90
2019-04-14T20:03:19.484Z,59.20
2019-04-14T20:05:50.052Z,59.30
2019-04-14T20:08:19.766Z,59.60
2019-04-14T20:10:49.585Z,59.90
2019-04-14T20:13:19.735Z,60.20
2019-04-14T20:16:00.095Z,60.40
2019-04-14T20:18:47.472Z,60.50
2019-04-14T20:21:42.086Z,60.70
2019-04-14T20:24:27.668Z,61.10
2019-04-14T20:27:13.254Z,61.40
2019-04-14T20:29:47.586Z,61.90
2019-04-14T20:32:20.282Z,62.00
2019-04-14T20:34:50.090Z,62.50
2019-04-14T20:37:19.778Z,62.60
2019-04-14T20:39:49.578Z,63.20
2019-04-14T20:42:19.294Z,63.70
2019-04-14T20:44:49.539Z,63.80
2019-04-14T20:47:20.304Z,64.00
2019-04-14T20:49:50.099Z,64.60
2019-04-14T20:52:19.814Z,64.90
2019-04-14T20:54:49.600Z,64.90
2019-04-14T20:57:19.314Z,64.80
2019-04-14T20:59:48.997Z,64.90
2019-04-14T21:02:46.599Z,65.20
2019-04-14T21:05:26.400Z,65.80
2019-04-14T21:08:14.996Z,66.10
2019-04-14T21:10:52.761Z,66.30
2019-04-14T21:13:41.759Z,66.30
2019-04-14T21:16:16.464Z,66.60
2019-04-14T21:18:51.476Z,66.60
2019-04-14T21:21:32.364Z,67.40
2019-04-14T21:24:26.987Z,67.90
2019-04-14T21:27:08.119Z,68.50
2019-04-14T21:29:43.314Z,68.90
2019-04-14T21:32:35.369Z,69.40
2019-04-14T21:35:13.372Z,69.50
2019-04-14T21:37:52.919Z,69.80
2019-04-14T21:40:45.598Z,70.30
2019-04-14T21:43:15.756Z,70.70
2019-04-14T21:45:45.390Z,71.90
2019-04-14T21:48:15.096Z,72.30
2019-04-14T21:50:44.740Z,72.50
2019-04-14T21:53:14.413Z,72.90
2019-04-14T21:55:44.914Z,73.10
2019-04-14T21:58:37.498Z,73.50
2019-04-14T22:01:51.708Z,74.00
2019-04-14T22:04:44.261Z,75.40
2019-04-14T22:07:41.546Z,76.80
2019-04-14T22:10:44.138Z,77.60
2019-04-14T22:13:15.077Z,79.20
2019-04-14T22:15:44.835Z,79.90
2019-04-14T22:18:14.659Z,80.80
2019-04-14T22:20:44.399Z,80.30
2019-04-14T22:23:14.278Z,80.50
2019-04-14T22:25:45.622Z,80.70
2019-04-14T22:28:16.455Z,79.80
2019-04-14T22:30:46.237Z,80.40
2019-04-14T22:33:15.988Z,80.30
2019-04-14T22:35:45.557Z,80.50
2019-04-14T22:38:15.269Z,80.30
2019-04-14T22:40:44.979Z,80.70
2019-04-14T22:43:14.730Z,81.10
2019-04-14T22:45:44.305Z,81.00
2019-04-14T22:48:14.110Z,82.00
2019-04-14T22:50:43.819Z,82.30
2019-04-14T22:53:18.056Z,82.00
2019-04-14T22:55:48.072Z,82.00
2019-04-14T22:58:17.893Z,82.20
2019-04-14T23:00:54.300Z,82.30
2019-04-14T23:03:45.421Z,82.40
2019-04-14T23:06:31.712Z,82.80
2019-04-14T23:09:25.148Z,83.50
2019-04-14T23:12:05.811Z,84.10
2019-04-14T23:14:59.039Z,83.90
2019-04-14T23:17:48.657Z,84.20
2019-04-14T23:20:24.757Z,83.80
2019-04-14T23:23:02.615Z,84.30
2019-04-14T23:25:32.660Z,84.70
2019-04-14T23:28:03.807Z,85.40
2019-04-14T23:30:33.693Z,86.20
2019-04-14T23:33:03.389Z,86.30
2019-04-14T23:35:33.146Z,86.50
2019-04-14T23:38:02.775Z,86.80
2019-04-14T23:40:32.516Z,87.30
2019-04-14T23:43:02.165Z,86.60
2019-04-14T23:45:31.730Z,86.50
2019-04-14T23:48:01.564Z,87.20
2019-04-14T23:50:31.234Z,87.40
2019-04-14T23:53:01.318Z,87.90
2019-04-14T23:55:30.927Z,87.80
2019-04-14T23:58:00.551Z,88.00
